Terminal Aerodrome Forecast
Issued by NWS Charleston, WV

Home | Current Version | Previous Version | Text Only | Print | Product List | Glossary On
Versions: 1 2 3 4 5 6 7 8 9 10 11 12 13 14 15 16 17 18 19 20 21 22 23
513
FTUS41 KRLX 181740
TAFBKW
TAF
KBKW 181740Z 1818/1918 29010G16KT P6SM BKN015 OVC035
     FM182300 30006KT P6SM SCT007 BKN015
     FM190500 VRB03KT P6SM SCT015
     FM191000 00000KT P6SM SCT150=

USA.gov is the U.S. government's official web portal to all federal, state and local government web resources and services.